sensor_id;sensor_type;location;lat;lon;timestamp;pressure;altitude;pressure_sealevel;temperature;humidity
61554;BME280;47425;51.976;5.326;2023-03-14T00:02:08;98750.69;;;16.88;47.57
61554;BME280;47425;51.976;5.326;2023-03-14T00:04:34;98752.72;;;16.85;47.46
61554;BME280;47425;51.976;5.326;2023-03-14T00:07:00;98760.69;;;16.73;47.82
61554;BME280;47425;51.976;5.326;2023-03-14T00:09:27;98758.59;;;16.77;47.58
61554;BME280;47425;51.976;5.326;2023-03-14T00:11:55;98761.75;;;16.71;47.62
61554;BME280;47425;51.976;5.326;2023-03-14T00:14:23;98756.13;;;16.64;47.93
61554;BME280;47425;51.976;5.326;2023-03-14T00:16:49;98738.31;;;16.66;48.14
61554;BME280;47425;51.976;5.326;2023-03-14T00:19:17;98742.31;;;16.72;47.98
61554;BME280;47425;51.976;5.326;2023-03-14T00:21:43;98739.28;;;16.76;47.75
61554;BME280;47425;51.976;5.326;2023-03-14T00:24:11;98731.22;;;16.78;47.52
61554;BME280;47425;51.976;5.326;2023-03-14T00:26:38;98736.75;;;16.64;47.88
61554;BME280;47425;51.976;5.326;2023-03-14T00:29:05;98734.38;;;16.60;48.11
61554;BME280;47425;51.976;5.326;2023-03-14T00:31:33;98740.75;;;16.58;48.23
61554;BME280;47425;51.976;5.326;2023-03-14T00:34:01;98745.06;;;16.59;47.96
61554;BME280;47425;51.976;5.326;2023-03-14T00:36:29;98749.28;;;16.61;48.17
61554;BME280;47425;51.976;5.326;2023-03-14T00:38:56;98751.31;;;16.69;48.29
61554;BME280;47425;51.976;5.326;2023-03-14T00:41:24;98741.66;;;16.80;47.56
61554;BME280;47425;51.976;5.326;2023-03-14T00:43:51;98743.13;;;16.72;47.70
61554;BME280;47425;51.976;5.326;2023-03-14T00:46:19;98754.78;;;16.70;47.67
61554;BME280;47425;51.976;5.326;2023-03-14T00:48:45;98756.81;;;16.66;47.87
61554;BME280;47425;51.976;5.326;2023-03-14T00:51:14;98754.06;;;16.56;48.09
61554;BME280;47425;51.976;5.326;2023-03-14T00:53:43;98746.03;;;16.58;48.54
61554;BME280;47425;51.976;5.326;2023-03-14T00:56:11;98764.75;;;16.66;48.41
61554;BME280;47425;51.976;5.326;2023-03-14T00:58:39;98749.97;;;16.64;47.83
61554;BME280;47425;51.976;5.326;2023-03-14T01:01:06;98767.03;;;16.59;47.80
61554;BME280;47425;51.976;5.326;2023-03-14T01:03:32;98751.78;;;16.40;48.42
61554;BME280;47425;51.976;5.326;2023-03-14T01:06:06;98747.34;;;16.41;48.50
61554;BME280;47425;51.976;5.326;2023-03-14T01:08:34;98756.00;;;16.43;48.51
61554;BME280;47425;51.976;5.326;2023-03-14T01:11:05;98770.66;;;16.47;48.55
61554;BME280;47425;51.976;5.326;2023-03-14T01:13:32;98780.38;;;16.47;48.53
61554;BME280;47425;51.976;5.326;2023-03-14T01:16:01;98769.31;;;16.53;48.49
61554;BME280;47425;51.976;5.326;2023-03-14T01:18:28;98771.97;;;16.41;48.64
61554;BME280;47425;51.976;5.326;2023-03-14T01:20:55;98780.72;;;16.42;48.99
61554;BME280;47425;51.976;5.326;2023-03-14T01:23:21;98786.88;;;16.42;48.74
61554;BME280;47425;51.976;5.326;2023-03-14T01:25:49;98790.94;;;16.35;49.09
61554;BME280;47425;51.976;5.326;2023-03-14T01:28:17;98789.50;;;16.31;49.19
61554;BME280;47425;51.976;5.326;2023-03-14T01:30:43;98776.53;;;16.39;48.84
61554;BME280;47425;51.976;5.326;2023-03-14T01:33:11;98768.50;;;16.52;48.52
61554;BME280;47425;51.976;5.326;2023-03-14T01:35:43;98772.19;;;16.61;48.64
61554;BME280;47425;51.976;5.326;2023-03-14T01:38:09;98774.25;;;16.69;48.33
61554;BME280;47425;51.976;5.326;2023-03-14T01:40:41;98770.38;;;16.73;48.42
61554;BME280;47425;51.976;5.326;2023-03-14T01:43:12;98771.38;;;16.72;48.05
61554;BME280;47425;51.976;5.326;2023-03-14T01:46:12;98768.34;;;16.76;48.40
61554;BME280;47425;51.976;5.326;2023-03-14T01:48:42;98757.19;;;16.73;48.24
61554;BME280;47425;51.976;5.326;2023-03-14T01:51:14;98762.25;;;16.76;48.21
61554;BME280;47425;51.976;5.326;2023-03-14T01:53:41;98763.09;;;16.65;48.40
61554;BME280;47425;51.976;5.326;2023-03-14T01:56:10;98743.38;;;16.58;48.62
61554;BME280;47425;51.976;5.326;2023-03-14T01:58:38;98746.63;;;16.50;48.90
61554;BME280;47425;51.976;5.326;2023-03-14T02:01:08;98749.88;;;16.54;48.80
61554;BME280;47425;51.976;5.326;2023-03-14T02:03:39;98743.41;;;16.47;48.92
61554;BME280;47425;51.976;5.326;2023-03-14T02:06:11;98737.63;;;16.41;49.09
61554;BME280;47425;51.976;5.326;2023-03-14T02:08:41;98739.31;;;16.54;48.94
61554;BME280;47425;51.976;5.326;2023-03-14T02:11:14;98744.94;;;16.60;48.78
61554;BME280;47425;51.976;5.326;2023-03-14T02:13:56;98732.34;;;16.64;48.59
61554;BME280;47425;51.976;5.326;2023-03-14T02:16:35;98724.75;;;16.71;48.46
61554;BME280;47425;51.976;5.326;2023-03-14T02:19:03;98718.97;;;16.77;48.30
61554;BME280;47425;51.976;5.326;2023-03-14T02:21:57;98717.31;;;16.76;48.30
61554;BME280;47425;51.976;5.326;2023-03-14T02:24:37;98713.94;;;16.74;48.54
61554;BME280;47425;51.976;5.326;2023-03-14T02:27:11;98719.56;;;16.81;48.17
61554;BME280;47425;51.976;5.326;2023-03-14T02:29:45;98715.97;;;16.82;48.21
61554;BME280;47425;51.976;5.326;2023-03-14T02:32:15;98719.44;;;16.82;47.98
61554;BME280;47425;51.976;5.326;2023-03-14T02:34:42;98722.56;;;16.87;48.00
61554;BME280;47425;51.976;5.326;2023-03-14T02:37:12;98718.22;;;16.86;48.09
61554;BME280;47425;51.976;5.326;2023-03-14T02:39:41;98719.91;;;16.87;48.02
61554;BME280;47425;51.976;5.326;2023-03-14T02:42:13;98698.53;;;16.90;47.84
61554;BME280;47425;51.976;5.326;2023-03-14T02:44:52;98695.16;;;16.88;48.05
61554;BME280;47425;51.976;5.326;2023-03-14T02:47:22;98696.00;;;16.89;47.88
61554;BME280;47425;51.976;5.326;2023-03-14T02:49:50;98693.25;;;16.90;47.88
61554;BME280;47425;51.976;5.326;2023-03-14T02:52:18;98702.88;;;16.91;47.89
61554;BME280;47425;51.976;5.326;2023-03-14T02:54:44;98698.53;;;16.90;47.86
61554;BME280;47425;51.976;5.326;2023-03-14T02:57:11;98691.34;;;16.92;47.85
61554;BME280;47425;51.976;5.326;2023-03-14T02:59:40;98698.41;;;16.92;47.91
61554;BME280;47425;51.976;5.326;2023-03-14T03:02:12;98694.56;;;16.96;47.70
61554;BME280;47425;51.976;5.326;2023-03-14T03:04:39;98686.88;;;16.93;47.77
61554;BME280;47425;51.976;5.326;2023-03-14T03:07:05;98697.31;;;16.94;47.76
61554;BME280;47425;51.976;5.326;2023-03-14T03:09:33;98692.88;;;16.95;47.87
61554;BME280;47425;51.976;5.326;2023-03-14T03:12:00;98692.38;;;17.01;47.69
61554;BME280;47425;51.976;5.326;2023-03-14T03:14:28;98685.44;;;17.00;47.70
61554;BME280;47425;51.976;5.326;2023-03-14T03:16:59;98680.75;;;16.92;47.74
61554;BME280;47425;51.976;5.326;2023-03-14T03:19:27;98679.53;;;16.97;47.70
61554;BME280;47425;51.976;5.326;2023-03-14T03:21:53;98681.94;;;17.00;47.81
61554;BME280;47425;51.976;5.326;2023-03-14T03:24:20;98674.72;;;17.02;47.60
61554;BME280;47425;51.976;5.326;2023-03-14T03:26:47;98678.31;;;17.01;47.62
61554;BME280;47425;51.976;5.326;2023-03-14T03:29:14;98672.31;;;16.99;47.54
61554;BME280;47425;51.976;5.326;2023-03-14T03:31:40;98674.13;;;16.98;47.60
61554;BME280;47425;51.976;5.326;2023-03-14T03:34:08;98680.22;;;16.99;47.65
61554;BME280;47425;51.976;5.326;2023-03-14T03:36:35;98677.59;;;16.99;47.73
61554;BME280;47425;51.976;5.326;2023-03-14T03:39:01;98670.38;;;17.01;47.73
61554;BME280;47425;51.976;5.326;2023-03-14T03:41:28;98664.97;;;17.02;47.69
61554;BME280;47425;51.976;5.326;2023-03-14T03:43:57;98667.63;;;17.02;47.75
61554;BME280;47425;51.976;5.326;2023-03-14T03:46:24;98662.31;;;17.02;47.64
61554;BME280;47425;51.976;5.326;2023-03-14T03:48:53;98667.47;;;17.04;47.76
61554;BME280;47425;51.976;5.326;2023-03-14T03:51:21;98657.63;;;17.06;47.54
61554;BME280;47425;51.976;5.326;2023-03-14T03:53:49;98660.63;;;17.01;47.80
61554;BME280;47425;51.976;5.326;2023-03-14T03:56:21;98657.16;;;17.01;47.60
61554;BME280;47425;51.976;5.326;2023-03-14T03:58:49;98665.09;;;17.01;47.59
61554;BME280;47425;51.976;5.326;2023-03-14T04:01:16;98659.22;;;16.97;47.86
61554;BME280;47425;51.976;5.326;2023-03-14T04:03:47;98659.81;;;17.01;47.60
61554;BME280;47425;51.976;5.326;2023-03-14T04:06:14;98669.78;;;16.97;47.67
61554;BME280;47425;51.976;5.326;2023-03-14T04:08:45;98663.81;;;16.95;47.83
61554;BME280;47425;51.976;5.326;2023-03-14T04:11:31;98665.72;;;16.93;48.02
61554;BME280;47425;51.976;5.326;2023-03-14T04:14:18;98668.22;;;16.94;47.99
61554;BME280;47425;51.976;5.326;2023-03-14T04:16:47;98669.31;;;16.92;47.92
61554;BME280;47425;51.976;5.326;2023-03-14T04:19:16;98664.16;;;16.90;47.93
61554;BME280;47425;51.976;5.326;2023-03-14T04:21:45;98658.16;;;16.88;47.87
61554;BME280;47425;51.976;5.326;2023-03-14T04:24:14;98667.03;;;16.87;48.16
61554;BME280;47425;51.976;5.326;2023-03-14T04:26:43;98652.25;;;16.85;48.11
61554;BME280;47425;51.976;5.326;2023-03-14T04:29:10;98665.22;;;16.88;47.96
61554;BME280;47425;51.976;5.326;2023-03-14T04:31:38;98657.22;;;16.89;47.86
61554;BME280;47425;51.976;5.326;2023-03-14T04:34:04;98651.94;;;16.89;47.87
61554;BME280;47425;51.976;5.326;2023-03-14T04:36:36;98651.81;;;16.91;47.83
61554;BME280;47425;51.976;5.326;2023-03-14T04:39:07;98657.91;;;16.91;47.96
61554;BME280;47425;51.976;5.326;2023-03-14T04:41:40;98649.16;;;16.91;47.97
61554;BME280;47425;51.976;5.326;2023-03-14T04:44:09;98655.16;;;16.93;47.89
61554;BME280;47425;51.976;5.326;2023-03-14T04:46:36;98655.28;;;16.91;47.64
61554;BME280;47425;51.976;5.326;2023-03-14T04:49:05;98648.78;;;16.96;47.69
61554;BME280;47425;51.976;5.326;2023-03-14T04:51:32;98656.84;;;16.94;47.51
61554;BME280;47425;51.976;5.326;2023-03-14T04:53:59;98655.16;;;16.93;47.57
61554;BME280;47425;51.976;5.326;2023-03-14T04:56:27;98656.22;;;16.90;47.69
61554;BME280;47425;51.976;5.326;2023-03-14T04:58:56;98646.53;;;16.91;47.62
61554;BME280;47425;51.976;5.326;2023-03-14T05:01:22;98641.38;;;16.89;47.60
61554;BME280;47425;51.976;5.326;2023-03-14T05:04:12;98641.47;;;16.76;47.99
61554;BME280;47425;51.976;5.326;2023-03-14T05:07:00;98639.56;;;16.78;47.94
61554;BME280;47425;51.976;5.326;2023-03-14T05:09:40;98635.72;;;16.83;48.03
61554;BME280;47425;51.976;5.326;2023-03-14T05:12:25;98636.41;;;16.85;47.69
61554;BME280;47425;51.976;5.326;2023-03-14T05:14:59;98631.72;;;16.88;47.85
61554;BME280;47425;51.976;5.326;2023-03-14T05:17:45;98628.34;;;16.86;47.88
61554;BME280;47425;51.976;5.326;2023-03-14T05:20:31;98627.50;;;16.86;47.60
61554;BME280;47425;51.976;5.326;2023-03-14T05:23:22;98621.38;;;16.85;47.69
61554;BME280;47425;51.976;5.326;2023-03-14T05:26:12;98621.28;;;16.87;47.73
61554;BME280;47425;51.976;5.326;2023-03-14T05:28:52;98624.16;;;16.84;47.97
61554;BME280;47425;51.976;5.326;2023-03-14T05:31:50;98624.00;;;16.85;47.81
61554;BME280;47425;51.976;5.326;2023-03-14T05:34:37;98619.72;;;16.84;47.66
61554;BME280;47425;51.976;5.326;2023-03-14T05:37:34;98618.63;;;16.87;47.90
61554;BME280;47425;51.976;5.326;2023-03-14T05:40:31;98611.38;;;16.89;47.57
61554;BME280;47425;51.976;5.326;2023-03-14T05:43:31;98610.56;;;16.88;47.66
61554;BME280;47425;51.976;5.326;2023-03-14T05:46:28;98616.09;;;16.85;47.73
61554;BME280;47425;51.976;5.326;2023-03-14T05:49:17;98624.16;;;16.84;48.02
61554;BME280;47425;51.976;5.326;2023-03-14T05:52:03;98619.59;;;16.86;47.79
61554;BME280;47425;51.976;5.326;2023-03-14T05:54:46;98616.56;;;16.90;47.56
61554;BME280;47425;51.976;5.326;2023-03-14T05:57:32;98621.88;;;16.90;47.80
61554;BME280;47425;51.976;5.326;2023-03-14T06:00:05;98615.97;;;16.87;47.82
61554;BME280;47425;51.976;5.326;2023-03-14T06:02:38;98620.91;;;16.91;47.70
61554;BME280;47425;51.976;5.326;2023-03-14T06:05:17;98610.19;;;16.93;47.72
61554;BME280;47425;51.976;5.326;2023-03-14T06:07:46;98619.81;;;16.94;47.63
61554;BME280;47425;51.976;5.326;2023-03-14T06:10:12;98618.13;;;16.93;47.42
61554;BME280;47425;51.976;5.326;2023-03-14T06:12:39;98616.44;;;16.92;47.68
61554;BME280;47425;51.976;5.326;2023-03-14T06:15:07;98614.44;;;16.84;47.68
61554;BME280;47425;51.976;5.326;2023-03-14T06:17:34;98614.28;;;16.86;47.97
61554;BME280;47425;51.976;5.326;2023-03-14T06:20:05;98616.94;;;16.86;47.75
61554;BME280;47425;51.976;5.326;2023-03-14T06:22:34;98613.34;;;16.87;47.95
61554;BME280;47425;51.976;5.326;2023-03-14T06:25:01;98617.63;;;16.88;47.69
61554;BME280;47425;51.976;5.326;2023-03-14T06:27:29;98608.66;;;16.90;47.63
61554;BME280;47425;51.976;5.326;2023-03-14T06:29:57;98618.72;;;16.97;47.60
61554;BME280;47425;51.976;5.326;2023-03-14T06:32:25;98614.91;;;16.89;47.67
61554;BME280;47425;51.976;5.326;2023-03-14T06:34:55;98630.84;;;16.88;47.72
61554;BME280;47425;51.976;5.326;2023-03-14T06:37:22;98622.22;;;16.86;47.88
61554;BME280;47425;51.976;5.326;2023-03-14T06:39:53;98665.13;;;16.78;48.16
61554;BME280;47425;51.976;5.326;2023-03-14T06:42:42;98689.47;;;16.38;48.76
61554;BME280;47425;51.976;5.326;2023-03-14T06:45:09;98693.91;;;15.45;50.27
61554;BME280;47425;51.976;5.326;2023-03-14T06:47:35;98704.63;;;14.45;51.64
61554;BME280;47425;51.976;5.326;2023-03-14T06:50:04;98716.13;;;13.92;53.16
61554;BME280;47425;51.976;5.326;2023-03-14T06:52:31;98726.47;;;13.70;54.07
61554;BME280;47425;51.976;5.326;2023-03-14T06:54:59;98725.56;;;13.43;54.36
61554;BME280;47425;51.976;5.326;2023-03-14T06:57:26;98740.28;;;13.19;55.03
61554;BME280;47425;51.976;5.326;2023-03-14T06:59:54;98743.34;;;12.98;55.43
61554;BME280;47425;51.976;5.326;2023-03-14T07:02:21;98753.28;;;12.66;56.15
61554;BME280;47425;51.976;5.326;2023-03-14T07:04:48;98755.06;;;12.65;56.63
61554;BME280;47425;51.976;5.326;2023-03-14T07:07:16;98765.84;;;12.61;56.62
61554;BME280;47425;51.976;5.326;2023-03-14T07:09:43;98771.84;;;12.34;57.66
61554;BME280;47425;51.976;5.326;2023-03-14T07:12:10;98779.44;;;12.24;57.93
61554;BME280;47425;51.976;5.326;2023-03-14T07:14:38;98789.50;;;12.32;58.00
61554;BME280;47425;51.976;5.326;2023-03-14T07:17:05;98794.66;;;12.48;58.14
61554;BME280;47425;51.976;5.326;2023-03-14T07:19:32;98800.84;;;12.61;58.07
61554;BME280;47425;51.976;5.326;2023-03-14T07:21:58;98816.59;;;12.61;57.96
61554;BME280;47425;51.976;5.326;2023-03-14T07:24:27;98832.81;;;12.68;58.06
61554;BME280;47425;51.976;5.326;2023-03-14T07:26:53;98836.94;;;12.72;58.02
61554;BME280;47425;51.976;5.326;2023-03-14T07:29:21;98837.31;;;12.66;57.96
61554;BME280;47425;51.976;5.326;2023-03-14T07:31:48;98849.41;;;12.83;58.26
61554;BME280;47425;51.976;5.326;2023-03-14T07:34:18;98857.56;;;12.78;56.88
61554;BME280;47425;51.976;5.326;2023-03-14T07:36:46;98865.63;;;12.46;58.01
61554;BME280;47425;51.976;5.326;2023-03-14T07:39:13;98877.63;;;12.36;59.05
61554;BME280;47425;51.976;5.326;2023-03-14T07:41:50;98884.97;;;12.15;58.67
61554;BME280;47425;51.976;5.326;2023-03-14T07:44:25;98895.50;;;11.99;58.29
61554;BME280;47425;51.976;5.326;2023-03-14T07:46:53;98917.44;;;11.82;58.44
61554;BME280;47425;51.976;5.326;2023-03-14T07:49:20;98921.13;;;11.78;60.92
61554;BME280;47425;51.976;5.326;2023-03-14T07:51:47;98917.41;;;11.98;58.58
61554;BME280;47425;51.976;5.326;2023-03-14T07:54:14;98933.81;;;11.85;58.61
61554;BME280;47425;51.976;5.326;2023-03-14T07:56:40;98944.50;;;11.66;58.67
61554;BME280;47425;51.976;5.326;2023-03-14T07:59:07;98958.38;;;11.52;59.46
61554;BME280;47425;51.976;5.326;2023-03-14T08:01:37;98972.16;;;11.56;60.82
61554;BME280;47425;51.976;5.326;2023-03-14T08:04:03;98983.41;;;11.58;60.58
61554;BME280;47425;51.976;5.326;2023-03-14T08:06:30;98986.59;;;11.31;59.73
61554;BME280;47425;51.976;5.326;2023-03-14T08:08:57;98997.72;;;11.19;60.25
61554;BME280;47425;51.976;5.326;2023-03-14T08:11:24;99004.53;;;11.05;60.78
61554;BME280;47425;51.976;5.326;2023-03-14T08:13:50;99007.38;;;11.01;60.31
61554;BME280;47425;51.976;5.326;2023-03-14T08:16:17;99012.78;;;10.98;61.12
61554;BME280;47425;51.976;5.326;2023-03-14T08:18:46;99012.19;;;10.57;61.00
61554;BME280;47425;51.976;5.326;2023-03-14T08:21:12;99039.88;;;10.44;61.83
61554;BME280;47425;51.976;5.326;2023-03-14T08:23:39;99043.81;;;10.34;62.07
61554;BME280;47425;51.976;5.326;2023-03-14T08:26:06;99061.25;;;10.16;62.07
61554;BME280;47425;51.976;5.326;2023-03-14T08:28:34;99071.59;;;10.00;63.35
61554;BME280;47425;51.976;5.326;2023-03-14T08:31:00;99085.50;;;9.81;63.24
61554;BME280;47425;51.976;5.326;2023-03-14T08:33:27;99101.41;;;9.57;64.29
61554;BME280;47425;51.976;5.326;2023-03-14T08:35:57;99111.59;;;9.43;63.26
61554;BME280;47425;51.976;5.326;2023-03-14T08:38:24;99123.88;;;9.41;64.30
61554;BME280;47425;51.976;5.326;2023-03-14T08:40:54;99151.75;;;9.40;63.47
61554;BME280;47425;51.976;5.326;2023-03-14T08:43:21;99148.03;;;9.26;64.15
61554;BME280;47425;51.976;5.326;2023-03-14T08:45:49;99164.38;;;9.31;63.62
61554;BME280;47425;51.976;5.326;2023-03-14T08:48:15;99180.59;;;8.96;63.64
61554;BME280;47425;51.976;5.326;2023-03-14T08:50:41;99201.91;;;8.85;64.51
61554;BME280;47425;51.976;5.326;2023-03-14T08:53:11;99209.72;;;8.63;62.68
61554;BME280;47425;51.976;5.326;2023-03-14T08:55:37;99226.88;;;8.47;62.91
61554;BME280;47425;51.976;5.326;2023-03-14T08:58:04;99235.63;;;8.44;63.75
61554;BME280;47425;51.976;5.326;2023-03-14T09:00:30;99236.84;;;8.59;63.71
61554;BME280;47425;51.976;5.326;2023-03-14T09:02:58;99249.81;;;8.61;63.94
61554;BME280;47425;51.976;5.326;2023-03-14T09:05:24;99252.94;;;8.70;63.14
61554;BME280;47425;51.976;5.326;2023-03-14T09:07:51;99269.66;;;8.88;62.99
61554;BME280;47425;51.976;5.326;2023-03-14T09:10:18;99286.28;;;8.86;62.58
61554;BME280;47425;51.976;5.326;2023-03-14T09:12:46;99277.00;;;8.79;63.61
61554;BME280;47425;51.976;5.326;2023-03-14T09:15:12;99288.94;;;8.84;62.62
61554;BME280;47425;51.976;5.326;2023-03-14T09:17:39;99298.72;;;8.79;61.40
61554;BME280;47425;51.976;5.326;2023-03-14T09:20:07;99305.72;;;9.01;62.01
61554;BME280;47425;51.976;5.326;2023-03-14T09:22:34;99314.97;;;9.10;61.69
61554;BME280;47425;51.976;5.326;2023-03-14T09:25:01;99320.06;;;9.13;62.30
61554;BME280;47425;51.976;5.326;2023-03-14T09:27:29;99334.59;;;9.20;61.56
61554;BME280;47425;51.976;5.326;2023-03-14T09:29:56;99344.84;;;9.24;61.56
61554;BME280;47425;51.976;5.326;2023-03-14T09:32:23;99354.22;;;9.30;61.24
61554;BME280;47425;51.976;5.326;2023-03-14T09:34:49;99366.59;;;9.25;61.26
61554;BME280;47425;51.976;5.326;2023-03-14T09:37:16;99384.22;;;9.20;60.14
61554;BME280;47425;51.976;5.326;2023-03-14T09:39:42;99401.44;;;9.02;59.92
61554;BME280;47425;51.976;5.326;2023-03-14T09:42:11;99410.34;;;8.96;60.38
61554;BME280;47425;51.976;5.326;2023-03-14T09:44:51;99421.09;;;9.34;61.29
61554;BME280;47425;51.976;5.326;2023-03-14T09:47:20;99434.69;;;9.44;60.42
61554;BME280;47425;51.976;5.326;2023-03-14T09:49:47;99446.72;;;9.48;58.80
61554;BME280;47425;51.976;5.326;2023-03-14T09:52:14;99451.69;;;9.32;59.80
61554;BME280;47425;51.976;5.326;2023-03-14T09:54:42;99448.50;;;9.24;58.86
61554;BME280;47425;51.976;5.326;2023-03-14T09:57:11;99458.84;;;9.27;59.76
61554;BME280;47425;51.976;5.326;2023-03-14T09:59:38;99461.47;;;9.49;59.94
61554;BME280;47425;51.976;5.326;2023-03-14T10:02:13;99463.25;;;9.49;58.98
61554;BME280;47425;51.976;5.326;2023-03-14T10:04:41;99481.09;;;9.37;58.79
61554;BME280;47425;51.976;5.326;2023-03-14T10:07:09;99489.56;;;9.44;59.05
61554;BME280;47425;51.976;5.326;2023-03-14T10:09:42;99505.53;;;9.36;57.14
61554;BME280;47425;51.976;5.326;2023-03-14T10:12:09;99515.78;;;9.17;58.97
61554;BME280;47425;51.976;5.326;2023-03-14T10:14:38;99526.63;;;9.30;59.02
61554;BME280;47425;51.976;5.326;2023-03-14T10:17:13;99532.41;;;9.40;58.54
61554;BME280;47425;51.976;5.326;2023-03-14T10:19:50;99533.81;;;9.72;58.71
61554;BME280;47425;51.976;5.326;2023-03-14T10:22:18;99545.94;;;9.73;58.24
61554;BME280;47425;51.976;5.326;2023-03-14T10:24:45;99556.63;;;9.91;58.97
61554;BME280;47425;51.976;5.326;2023-03-14T10:27:17;99582.94;;;9.39;59.02
61554;BME280;47425;51.976;5.326;2023-03-14T10:29:51;99596.22;;;8.82;60.49
61554;BME280;47425;51.976;5.326;2023-03-14T10:32:20;99615.38;;;8.54;61.62
61554;BME280;47425;51.976;5.326;2023-03-14T10:35:03;99635.28;;;8.57;60.08
61554;BME280;47425;51.976;5.326;2023-03-14T10:37:30;99653.25;;;8.38;60.27
61554;BME280;47425;51.976;5.326;2023-03-14T10:39:58;99646.31;;;8.37;59.49
61554;BME280;47425;51.976;5.326;2023-03-14T10:42:32;99655.13;;;8.63;61.78
61554;BME280;47425;51.976;5.326;2023-03-14T10:45:00;99665.47;;;8.93;60.39
61554;BME280;47425;51.976;5.326;2023-03-14T10:47:29;99680.63;;;9.35;60.41
61554;BME280;47425;51.976;5.326;2023-03-14T10:49:58;99688.25;;;9.41;59.63
61554;BME280;47425;51.976;5.326;2023-03-14T10:52:47;99700.00;;;9.80;60.42
61554;BME280;47425;51.976;5.326;2023-03-14T10:55:14;99702.28;;;9.89;57.84
61554;BME280;47425;51.976;5.326;2023-03-14T10:57:42;99704.38;;;10.03;58.79
61554;BME280;47425;51.976;5.326;2023-03-14T11:00:12;99713.50;;;9.93;56.81
61554;BME280;47425;51.976;5.326;2023-03-14T11:02:52;99721.28;;;9.94;56.83
61554;BME280;47425;51.976;5.326;2023-03-14T11:05:25;99740.47;;;9.93;57.94
61554;BME280;47425;51.976;5.326;2023-03-14T11:07:56;99763.06;;;9.96;57.48
61554;BME280;47425;51.976;5.326;2023-03-14T11:10:31;99774.03;;;9.80;57.78
61554;BME280;47425;51.976;5.326;2023-03-14T11:13:00;99773.28;;;9.51;57.54
61554;BME280;47425;51.976;5.326;2023-03-14T11:15:34;99790.41;;;9.06;55.25
61554;BME280;47425;51.976;5.326;2023-03-14T11:18:10;99789.28;;;9.14;57.17
61554;BME280;47425;51.976;5.326;2023-03-14T11:20:38;99795.13;;;9.49;56.60
61554;BME280;47425;51.976;5.326;2023-03-14T11:23:29;99809.66;;;9.84;56.10
61554;BME280;47425;51.976;5.326;2023-03-14T11:25:59;99811.34;;;9.85;55.46
61554;BME280;47425;51.976;5.326;2023-03-14T11:28:29;99812.53;;;9.50;54.46
61554;BME280;47425;51.976;5.326;2023-03-14T11:31:01;99811.63;;;9.24;53.75
61554;BME280;47425;51.976;5.326;2023-03-14T11:33:35;99828.81;;;9.31;54.67
61554;BME280;47425;51.976;5.326;2023-03-14T11:36:04;99844.25;;;9.39;55.16
61554;BME280;47425;51.976;5.326;2023-03-14T11:38:33;99849.75;;;9.30;55.47
61554;BME280;47425;51.976;5.326;2023-03-14T11:41:01;99846.34;;;9.54;55.60
61554;BME280;47425;51.976;5.326;2023-03-14T11:43:29;99867.81;;;9.37;54.05
61554;BME280;47425;51.976;5.326;2023-03-14T11:45:58;99861.13;;;9.55;53.69
61554;BME280;47425;51.976;5.326;2023-03-14T11:48:29;99867.63;;;9.70;52.72
61554;BME280;47425;51.976;5.326;2023-03-14T11:50:59;99871.84;;;9.74;53.73
61554;BME280;47425;51.976;5.326;2023-03-14T11:53:34;99875.69;;;9.91;52.20
61554;BME280;47425;51.976;5.326;2023-03-14T11:56:04;99886.00;;;9.96;51.32
61554;BME280;47425;51.976;5.326;2023-03-14T11:58:37;99892.47;;;9.84;47.71
61554;BME280;47425;51.976;5.326;2023-03-14T12:01:06;99883.44;;;9.94;48.25
61554;BME280;47425;51.976;5.326;2023-03-14T12:03:35;99904.38;;;10.19;48.09
61554;BME280;47425;51.976;5.326;2023-03-14T12:06:11;99908.75;;;10.19;45.17
61554;BME280;47425;51.976;5.326;2023-03-14T12:08:48;99909.69;;;9.91;46.31
61554;BME280;47425;51.976;5.326;2023-03-14T12:11:18;99918.50;;;9.88;44.69
61554;BME280;47425;51.976;5.326;2023-03-14T12:13:46;99920.09;;;9.93;45.48
61554;BME280;47425;51.976;5.326;2023-03-14T12:16:30;99938.19;;;10.25;46.08
61554;BME280;47425;51.976;5.326;2023-03-14T12:19:13;99937.34;;;10.25;43.85
61554;BME280;47425;51.976;5.326;2023-03-14T12:21:47;99943.59;;;10.73;47.49
61554;BME280;47425;51.976;5.326;2023-03-14T12:24:18;99945.84;;;10.82;42.93
61554;BME280;47425;51.976;5.326;2023-03-14T12:26:48;99945.78;;;10.60;42.11
61554;BME280;47425;51.976;5.326;2023-03-14T12:29:16;99966.00;;;10.55;42.11
61554;BME280;47425;51.976;5.326;2023-03-14T12:31:43;99964.56;;;10.19;39.73
61554;BME280;47425;51.976;5.326;2023-03-14T12:37:19;99968.69;;;10.00;41.72
61554;BME280;47425;51.976;5.326;2023-03-14T12:39:50;99977.06;;;10.10;40.41
61554;BME280;47425;51.976;5.326;2023-03-14T12:42:35;99976.03;;;10.15;42.08
61554;BME280;47425;51.976;5.326;2023-03-14T12:45:13;99992.16;;;10.01;40.42
61554;BME280;47425;51.976;5.326;2023-03-14T12:47:50;99991.56;;;9.93;41.29
61554;BME280;47425;51.976;5.326;2023-03-14T12:50:19;99999.59;;;10.15;41.09
61554;BME280;47425;51.976;5.326;2023-03-14T12:52:52;100003.78;;;9.93;40.17
61554;BME280;47425;51.976;5.326;2023-03-14T12:55:26;100016.03;;;9.90;40.37
61554;BME280;47425;51.976;5.326;2023-03-14T12:57:57;100018.25;;;10.04;40.28
61554;BME280;47425;51.976;5.326;2023-03-14T13:00:30;100021.47;;;9.84;40.25
61554;BME280;47425;51.976;5.326;2023-03-14T13:03:00;100021.47;;;9.84;38.57
61554;BME280;47425;51.976;5.326;2023-03-14T13:05:28;100027.69;;;9.80;39.08
61554;BME280;47425;51.976;5.326;2023-03-14T13:08:03;100030.59;;;9.99;38.74
61554;BME280;47425;51.976;5.326;2023-03-14T13:10:38;100035.91;;;9.98;37.45
61554;BME280;47425;51.976;5.326;2023-03-14T13:13:11;100053.53;;;9.91;37.76
61554;BME280;47425;51.976;5.326;2023-03-14T13:15:43;100057.13;;;9.87;39.02
61554;BME280;47425;51.976;5.326;2023-03-14T13:18:10;100064.34;;;10.08;40.63
61554;BME280;47425;51.976;5.326;2023-03-14T13:20:40;100063.69;;;10.00;41.22
61554;BME280;47425;51.976;5.326;2023-03-14T13:23:20;100074.78;;;10.38;41.39
61554;BME280;47425;51.976;5.326;2023-03-14T13:25:47;100084.88;;;10.21;38.90